createdAt,value
2023-07-27T00:01:51.862Z,97278.89
2023-07-27T00:04:19.804Z,97276.23
2023-07-27T00:06:47.908Z,97270.88
2023-07-27T00:09:14.428Z,97267.01
2023-07-27T00:11:41.823Z,97267.17
2023-07-27T00:14:08.777Z,97264.79
2023-07-27T00:16:35.568Z,97271.52
2023-07-27T00:19:02.637Z,97273.79
2023-07-27T00:21:29.592Z,97273.71
2023-07-27T00:23:56.485Z,97270.61
2023-07-27T00:26:23.430Z,97271.15
2023-07-27T00:28:50.663Z,97270.48
2023-07-27T00:31:17.145Z,97277.98
2023-07-27T00:33:43.746Z,97282.30
2023-07-27T00:36:10.394Z,97285.49
2023-07-27T00:38:37.564Z,97290.44
2023-07-27T00:41:05.481Z,97291.86
2023-07-27T00:43:32.423Z,97289.53
2023-07-27T00:45:59.193Z,97292.02
2023-07-27T00:48:26.342Z,97297.20
2023-07-27T00:50:55.013Z,97301.17
2023-07-27T00:53:21.862Z,97298.17
2023-07-27T00:55:48.934Z,97298.22
2023-07-27T00:58:15.678Z,97299.88
2023-07-27T01:05:00.193Z,97304.43
2023-07-27T01:12:56.583Z,97311.26
2023-07-27T01:17:06.726Z,97314.98
2023-07-27T01:20:47.487Z,97316.83
2023-07-27T01:23:46.669Z,97317.59
2023-07-27T01:26:34.100Z,97311.31
2023-07-27T01:29:14.914Z,97310.49
2023-07-27T01:31:44.126Z,97311.45
2023-07-27T01:34:28.090Z,97315.98
2023-07-27T01:37:05.737Z,97317.52
2023-07-27T01:39:36.884Z,97314.56
2023-07-27T01:42:09.804Z,97319.08
2023-07-27T01:44:37.253Z,97323.46
2023-07-27T01:47:05.119Z,97321.35
2023-07-27T01:49:33.679Z,97323.44
2023-07-27T01:52:02.234Z,97323.11
2023-07-27T01:54:29.020Z,97324.12
2023-07-27T01:56:56.988Z,97327.16
2023-07-27T01:59:25.296Z,97333.41
2023-07-27T02:01:52.859Z,97327.22
2023-07-27T02:04:19.619Z,97323.91
2023-07-27T02:06:52.631Z,97325.59
2023-07-27T02:09:19.471Z,97328.84
2023-07-27T02:11:49.890Z,97325.81
2023-07-27T02:14:35.047Z,97331.61
2023-07-27T02:17:10.637Z,97334.75
2023-07-27T02:19:41.603Z,97337.80
2023-07-27T02:22:10.531Z,97347.61
2023-07-27T02:24:37.779Z,97348.54
2023-07-27T02:27:05.554Z,97355.76
2023-07-27T02:29:31.884Z,97349.67
2023-07-27T02:31:58.791Z,97353.33
2023-07-27T02:34:25.205Z,97347.11
2023-07-27T02:36:52.056Z,97351.22
2023-07-27T02:39:19.287Z,97354.98
2023-07-27T02:41:45.700Z,97357.46
2023-07-27T02:44:12.114Z,97362.16
2023-07-27T02:46:38.739Z,97364.40
2023-07-27T02:49:05.201Z,97366.52
2023-07-27T02:51:32.263Z,97371.07
2023-07-27T02:53:58.801Z,97372.25
2023-07-27T02:56:25.314Z,97373.73
2023-07-27T02:58:51.804Z,97381.09
2023-07-27T03:01:19.360Z,97385.88
2023-07-27T03:03:45.852Z,97382.26
2023-07-27T03:06:12.409Z,97388.50
2023-07-27T03:08:39.346Z,97388.52
2023-07-27T03:11:06.163Z,97385.98
2023-07-27T03:13:33.797Z,97385.52
2023-07-27T03:16:03.383Z,97386.32
2023-07-27T03:18:30.102Z,97391.44
2023-07-27T03:20:56.855Z,97392.26
2023-07-27T03:23:23.474Z,97392.03
2023-07-27T03:25:49.978Z,97388.62
2023-07-27T03:28:16.652Z,97387.59
2023-07-27T03:30:43.924Z,97389.68
2023-07-27T03:33:10.408Z,97390.20
2023-07-27T03:35:37.401Z,97392.46
2023-07-27T03:38:04.448Z,97392.14
2023-07-27T03:40:30.825Z,97398.20
2023-07-27T03:42:57.442Z,97399.45
2023-07-27T03:45:24.036Z,97398.29
2023-07-27T03:47:50.848Z,97400.85
2023-07-27T03:50:17.721Z,97400.54
2023-07-27T03:52:44.082Z,97395.54
2023-07-27T03:55:10.643Z,97399.22
2023-07-27T03:57:38.013Z,97399.34
2023-07-27T04:00:06.227Z,97403.45
2023-07-27T04:02:32.925Z,97400.45
2023-07-27T04:04:59.344Z,97403.05
2023-07-27T04:07:25.771Z,97403.55
2023-07-27T04:09:52.449Z,97401.11
2023-07-27T04:12:19.322Z,97407.08
2023-07-27T04:14:45.750Z,97405.67
2023-07-27T04:17:12.235Z,97410.54
2023-07-27T04:19:39.350Z,97410.60
2023-07-27T04:22:05.976Z,97415.05
2023-07-27T04:24:32.544Z,97414.77
2023-07-27T04:26:58.771Z,97415.84
2023-07-27T04:29:25.281Z,97414.93
2023-07-27T04:31:52.053Z,97418.14
2023-07-27T04:34:18.867Z,97417.95
2023-07-27T04:36:48.425Z,97415.50
2023-07-27T04:39:15.892Z,97414.63
2023-07-27T04:41:42.326Z,97412.80
2023-07-27T04:44:08.940Z,97414.24
2023-07-27T04:46:35.793Z,97418.58
2023-07-27T04:49:02.646Z,97420.16
2023-07-27T04:51:29.616Z,97417.52
2023-07-27T04:53:55.992Z,97420.71
2023-07-27T04:56:22.814Z,97419.61
2023-07-27T04:58:49.489Z,97424.58
2023-07-27T05:01:15.959Z,97422.27
2023-07-27T05:03:42.529Z,97424.96
2023-07-27T05:06:08.958Z,97426.79
2023-07-27T05:08:35.451Z,97429.39
2023-07-27T05:11:07.141Z,97429.55
2023-07-27T05:13:34.874Z,97428.05
2023-07-27T05:16:01.975Z,97433.02
2023-07-27T05:18:29.074Z,97433.70
2023-07-27T05:20:56.560Z,97434.14
2023-07-27T05:23:23.550Z,97435.45
2023-07-27T05:28:41.842Z,97442.75
2023-07-27T05:31:09.099Z,97440.61
2023-07-27T05:33:35.550Z,97444.89
2023-07-27T05:36:02.234Z,97447.46
2023-07-27T05:38:31.374Z,97447.82
2023-07-27T05:41:02.009Z,97443.48
2023-07-27T05:43:28.884Z,97447.30
2023-07-27T05:45:55.666Z,97446.44
2023-07-27T05:48:31.534Z,97447.96
2023-07-27T05:50:58.181Z,97453.88
2023-07-27T05:53:24.465Z,97457.02
2023-07-27T05:55:51.118Z,97453.52
2023-07-27T05:58:24.794Z,97453.90
2023-07-27T06:00:52.196Z,97453.10
2023-07-27T06:03:19.771Z,97455.08
2023-07-27T06:05:46.266Z,97456.09
2023-07-27T06:08:12.998Z,97453.40
2023-07-27T06:10:39.973Z,97447.45
2023-07-27T06:13:07.226Z,97449.66
2023-07-27T06:15:33.848Z,97446.55
2023-07-27T06:18:00.606Z,97445.52
2023-07-27T06:20:27.066Z,97439.84
2023-07-27T06:22:53.313Z,97438.02
2023-07-27T06:25:19.761Z,97440.09
2023-07-27T06:27:46.097Z,97440.66
2023-07-27T06:30:13.837Z,97444.67
2023-07-27T06:32:40.554Z,97440.13
2023-07-27T06:35:07.623Z,97440.16
2023-07-27T06:37:34.385Z,97438.30
2023-07-27T06:40:00.964Z,97441.95
2023-07-27T06:42:27.339Z,97443.65
2023-07-27T06:44:53.915Z,97444.86
2023-07-27T06:47:20.392Z,97446.91
2023-07-27T06:49:46.784Z,97443.35
2023-07-27T06:52:13.753Z,97443.63
2023-07-27T06:54:40.610Z,97441.30
2023-07-27T06:57:10.677Z,97444.13
2023-07-27T06:59:37.854Z,97444.95
2023-07-27T07:02:04.934Z,97450.98
2023-07-27T07:04:32.428Z,97454.58
2023-07-27T07:06:58.980Z,97455.86
2023-07-27T07:09:25.387Z,97453.31
2023-07-27T07:11:51.983Z,97455.36
2023-07-27T07:14:18.551Z,97454.91
2023-07-27T07:16:45.080Z,97448.70
2023-07-27T07:19:11.616Z,97450.12
2023-07-27T07:21:37.831Z,97447.05
2023-07-27T07:24:04.992Z,97444.14
2023-07-27T07:26:32.486Z,97443.34
2023-07-27T07:28:59.237Z,97444.73
2023-07-27T07:31:25.711Z,97442.48
2023-07-27T07:33:52.380Z,97442.91
2023-07-27T07:36:19.913Z,97443.70
2023-07-27T07:38:46.783Z,97442.98
2023-07-27T07:41:14.558Z,97442.50
2023-07-27T07:43:40.870Z,97437.70
2023-07-27T07:46:14.087Z,97438.07
2023-07-27T07:48:40.785Z,97442.29
2023-07-27T07:51:11.731Z,97441.97
2023-07-27T07:53:38.664Z,97446.40
2023-07-27T07:56:05.529Z,97441.58
2023-07-27T07:58:32.289Z,97444.83
2023-07-27T08:01:01.380Z,97443.77
2023-07-27T08:03:27.958Z,97448.58
2023-07-27T08:05:54.468Z,97449.46
2023-07-27T08:08:21.546Z,97449.41
2023-07-27T08:10:48.471Z,97446.14
2023-07-27T08:13:14.972Z,97446.40
2023-07-27T08:15:51.159Z,97449.55
2023-07-27T08:18:17.661Z,97451.54
2023-07-27T08:20:44.010Z,97449.11
2023-07-27T08:23:10.544Z,97453.19
2023-07-27T08:25:38.285Z,97452.46
2023-07-27T08:28:06.271Z,97450.20
2023-07-27T08:30:35.611Z,97450.09
2023-07-27T08:33:01.932Z,97446.66
2023-07-27T08:35:28.475Z,97438.17
2023-07-27T08:37:55.351Z,97436.39
2023-07-27T08:40:22.027Z,97429.13
2023-07-27T08:42:50.060Z,97427.52
2023-07-27T08:45:21.788Z,97427.44
2023-07-27T08:47:54.066Z,97429.29
2023-07-27T08:50:21.014Z,97424.02
2023-07-27T08:52:47.948Z,97428.42
2023-07-27T08:55:14.548Z,97426.52
2023-07-27T08:57:40.867Z,97426.08
2023-07-27T09:00:10.822Z,97422.73
2023-07-27T09:02:39.864Z,97418.58
2023-07-27T09:05:07.374Z,97423.55
2023-07-27T09:07:33.894Z,97424.02
2023-07-27T09:10:06.196Z,97427.83
2023-07-27T09:12:33.939Z,97419.88
2023-07-27T09:15:00.664Z,97415.02
2023-07-27T09:17:27.374Z,97417.34
2023-07-27T09:19:54.094Z,97417.67
2023-07-27T09:22:20.547Z,97419.80
2023-07-27T09:24:47.259Z,97420.63
2023-07-27T09:27:16.546Z,97415.77
2023-07-27T09:29:43.481Z,97419.28
2023-07-27T09:32:11.152Z,97417.23
2023-07-27T09:34:37.473Z,97417.08
2023-07-27T09:37:06.576Z,97417.05
2023-07-27T09:39:33.931Z,97420.90
2023-07-27T09:42:00.547Z,97422.09
2023-07-27T09:44:26.970Z,97421.71
2023-07-27T09:46:53.453Z,97419.59
2023-07-27T09:49:20.723Z,97423.89
2023-07-27T09:51:49.951Z,97418.63
2023-07-27T09:54:18.721Z,97416.84
2023-07-27T09:56:46.488Z,97419.61
2023-07-27T09:59:14.933Z,97421.00
2023-07-27T10:01:42.555Z,97408.32
2023-07-27T10:04:09.083Z,97403.80
2023-07-27T10:06:36.756Z,97405.10
2023-07-27T10:09:18.866Z,97413.63
2023-07-27T10:12:02.481Z,97416.79
2023-07-27T10:15:13.319Z,97414.89
2023-07-27T10:17:50.252Z,97406.32
2023-07-27T10:20:31.407Z,97404.83
2023-07-27T10:23:21.336Z,97404.05
2023-07-27T10:25:53.910Z,97404.10
2023-07-27T10:28:44.680Z,97392.94
2023-07-27T10:31:29.953Z,97391.39
2023-07-27T10:34:24.902Z,97394.04
2023-07-27T10:37:00.378Z,97387.36
2023-07-27T10:39:44.058Z,97390.59
2023-07-27T10:42:15.358Z,97389.64
2023-07-27T10:44:48.293Z,97388.06
2023-07-27T10:47:25.803Z,97384.92
2023-07-27T10:50:02.515Z,97386.78
2023-07-27T10:52:33.519Z,97379.49
2023-07-27T10:55:00.925Z,97374.00
2023-07-27T10:57:29.349Z,97365.27
2023-07-27T10:59:56.186Z,97364.08
2023-07-27T11:02:31.251Z,97368.02
2023-07-27T11:05:04.404Z,97370.39
2023-07-27T11:07:33.898Z,97369.98
2023-07-27T11:10:07.615Z,97361.25
2023-07-27T11:12:50.568Z,97351.91
2023-07-27T11:15:36.199Z,97357.81
2023-07-27T11:18:03.656Z,97354.74
2023-07-27T11:20:30.245Z,97357.10
2023-07-27T11:22:57.984Z,97351.54
2023-07-27T11:25:26.581Z,97349.51
2023-07-27T11:27:54.698Z,97353.06
2023-07-27T11:30:22.758Z,97352.27
2023-07-27T11:33:03.395Z,97348.65
2023-07-27T11:35:30.874Z,97340.85
2023-07-27T11:37:58.464Z,97340.87
2023-07-27T11:40:32.555Z,97339.62
2023-07-27T11:43:04.031Z,97334.70
2023-07-27T11:45:32.415Z,97336.62
2023-07-27T11:47:59.856Z,97340.00
2023-07-27T11:50:30.072Z,97337.70
2023-07-27T11:53:03.939Z,97337.08
2023-07-27T11:55:36.813Z,97344.60
2023-07-27T11:58:11.790Z,97339.93
2023-07-27T12:00:38.604Z,97335.61
2023-07-27T12:03:16.310Z,97326.55
2023-07-27T12:06:08.276Z,97321.16
2023-07-27T12:11:40.875Z,97313.98
2023-07-27T12:17:01.225Z,97307.69
2023-07-27T12:21:44.106Z,97303.55
2023-07-27T12:34:11.896Z,97307.03
2023-07-27T12:36:39.410Z,97305.48
2023-07-27T12:39:06.066Z,97302.11
2023-07-27T12:41:33.154Z,97294.14
2023-07-27T12:44:01.620Z,97292.29
2023-07-27T12:46:28.378Z,97290.16
2023-07-27T12:48:55.013Z,97284.88
2023-07-27T12:51:25.389Z,97286.01
2023-07-27T12:53:51.919Z,97284.52
2023-07-27T12:56:19.071Z,97287.29
2023-07-27T12:58:46.476Z,97283.65
2023-07-27T13:01:13.196Z,97285.27
2023-07-27T13:03:40.786Z,97288.46
2023-07-27T13:06:08.091Z,97287.00
2023-07-27T13:08:34.818Z,97287.94
2023-07-27T13:11:01.345Z,97291.77
2023-07-27T13:13:28.401Z,97290.20
2023-07-27T13:15:55.153Z,97284.88
2023-07-27T13:18:21.611Z,97281.48
2023-07-27T13:20:49.304Z,97280.72
2023-07-27T13:23:16.338Z,97282.75
2023-07-27T13:25:42.884Z,97285.83
2023-07-27T13:28:10.148Z,97286.45
2023-07-27T13:30:37.087Z,97278.09
2023-07-27T13:33:03.778Z,97282.80
2023-07-27T13:35:30.954Z,97281.66
2023-07-27T13:37:57.649Z,97273.63
2023-07-27T13:40:24.192Z,97275.83
2023-07-27T13:42:51.127Z,97276.52
2023-07-27T13:45:17.594Z,97272.59
2023-07-27T13:47:53.865Z,97272.73
2023-07-27T13:50:29.330Z,97270.06
2023-07-27T13:52:55.823Z,97267.64
2023-07-27T13:55:24.905Z,97264.89
2023-07-27T13:57:51.561Z,97253.29
2023-07-27T14:00:18.647Z,97250.83
2023-07-27T14:02:45.720Z,97249.68
2023-07-27T14:05:14.552Z,97248.31
2023-07-27T14:07:41.089Z,97247.31
2023-07-27T14:10:09.285Z,97240.85
2023-07-27T14:12:36.335Z,97241.02
2023-07-27T14:15:03.113Z,97240.56
2023-07-27T14:17:29.596Z,97236.24
2023-07-27T14:19:58.426Z,97235.95
2023-07-27T14:22:25.381Z,97235.58
2023-07-27T14:24:52.963Z,97235.67
2023-07-27T14:27:21.929Z,97234.38
2023-07-27T14:29:48.667Z,97227.64
2023-07-27T14:32:14.975Z,97226.27
2023-07-27T14:34:41.959Z,97225.30
2023-07-27T14:37:08.523Z,97230.64
2023-07-27T14:42:14.202Z,97233.09
2023-07-27T14:44:40.592Z,97230.02
2023-07-27T14:47:09.321Z,97228.73
2023-07-27T14:52:05.676Z,97221.16
2023-07-27T14:54:32.621Z,97218.87
2023-07-27T14:57:02.390Z,97216.64
2023-07-27T14:59:29.863Z,97219.73
2023-07-27T15:01:57.743Z,97220.02
2023-07-27T15:06:54.373Z,97212.02
2023-07-27T15:09:31.085Z,97212.83
2023-07-27T15:11:58.092Z,97215.90
2023-07-27T15:14:24.686Z,97214.09
2023-07-27T15:16:51.234Z,97213.77
2023-07-27T15:19:18.079Z,97209.64
2023-07-27T15:21:44.751Z,97211.66
2023-07-27T15:24:12.823Z,97208.36
2023-07-27T15:26:39.858Z,97206.20
2023-07-27T15:29:07.237Z,97206.04
2023-07-27T15:31:34.018Z,97200.64
2023-07-27T15:34:00.780Z,97193.14
2023-07-27T15:36:29.328Z,97187.85
2023-07-27T15:38:56.229Z,97189.95
2023-07-27T15:41:22.770Z,97191.48
2023-07-27T15:43:49.208Z,97191.44
2023-07-27T15:46:16.271Z,97193.55
2023-07-27T15:48:43.578Z,97191.05
2023-07-27T15:51:10.219Z,97189.45
2023-07-27T15:53:39.323Z,97185.41
2023-07-27T15:56:06.455Z,97183.54
2023-07-27T15:58:33.014Z,97186.16
2023-07-27T16:01:01.433Z,97189.52
2023-07-27T16:03:28.833Z,97190.33
2023-07-27T16:05:55.508Z,97187.77
2023-07-27T16:08:23.831Z,97187.26
2023-07-27T16:10:50.786Z,97183.09
2023-07-27T16:13:17.329Z,97184.92
2023-07-27T16:15:44.479Z,97186.95
2023-07-27T16:18:11.167Z,97184.85
2023-07-27T16:20:44.214Z,97184.55
2023-07-27T16:23:12.985Z,97184.99
2023-07-27T16:25:39.902Z,97180.38
2023-07-27T16:28:06.586Z,97180.45
2023-07-27T16:30:35.227Z,97179.91
2023-07-27T16:33:03.732Z,97177.06
2023-07-27T16:35:32.369Z,97177.39
2023-07-27T16:37:59.574Z,97174.43
2023-07-27T16:40:26.473Z,97174.68
2023-07-27T16:42:53.041Z,97172.21
2023-07-27T16:45:23.290Z,97175.55
2023-07-27T16:47:49.897Z,97175.38
2023-07-27T16:50:16.443Z,97168.82
2023-07-27T16:52:44.441Z,97169.99
2023-07-27T16:55:10.907Z,97172.95
2023-07-27T16:57:37.287Z,97171.41
2023-07-27T17:00:04.540Z,97162.04
2023-07-27T17:02:32.077Z,97165.45
2023-07-27T17:04:58.811Z,97165.49
2023-07-27T17:07:26.736Z,97171.55
2023-07-27T17:09:53.370Z,97174.87
2023-07-27T17:12:19.690Z,97173.27
2023-07-27T17:14:47.395Z,97169.49
2023-07-27T17:17:14.750Z,97169.60
2023-07-27T17:19:41.636Z,97171.98
2023-07-27T17:22:08.390Z,97174.98
2023-07-27T17:24:35.201Z,97175.09
2023-07-27T17:27:01.962Z,97175.55
2023-07-27T17:29:28.801Z,97172.78
2023-07-27T17:31:55.183Z,97171.02
2023-07-27T17:34:24.173Z,97170.73
2023-07-27T17:36:50.996Z,97167.02
2023-07-27T17:39:17.621Z,97164.64
2023-07-27T17:41:44.261Z,97164.54
2023-07-27T17:44:11.136Z,97164.25
2023-07-27T17:46:37.782Z,97168.39
2023-07-27T17:49:04.846Z,97165.08
2023-07-27T17:51:32.920Z,97165.09
2023-07-27T17:53:59.851Z,97171.11
2023-07-27T17:56:26.358Z,97167.23
2023-07-27T17:58:53.883Z,97165.54
2023-07-27T18:01:20.801Z,97164.27
2023-07-27T18:03:50.801Z,97168.03
2023-07-27T18:06:17.513Z,97164.94
2023-07-27T18:08:44.180Z,97168.24
2023-07-27T18:11:14.590Z,97166.52
2023-07-27T18:13:42.737Z,97169.67
2023-07-27T18:16:11.702Z,97175.36
2023-07-27T18:18:39.239Z,97178.34
2023-07-27T18:21:14.495Z,97176.52
2023-07-27T18:23:42.586Z,97184.52
2023-07-27T18:26:17.301Z,97182.76
2023-07-27T18:28:44.113Z,97186.39
2023-07-27T18:31:10.785Z,97186.56
2023-07-27T18:33:38.350Z,97187.17
2023-07-27T18:36:17.153Z,97183.50
2023-07-27T18:38:46.039Z,97178.74
2023-07-27T18:41:17.471Z,97181.04
2023-07-27T18:43:44.287Z,97181.32
2023-07-27T18:46:16.398Z,97178.88
2023-07-27T18:48:43.066Z,97174.52
2023-07-27T18:51:09.707Z,97176.13
2023-07-27T18:53:37.096Z,97174.49
2023-07-27T18:56:04.128Z,97176.65
2023-07-27T18:58:30.916Z,97170.52
2023-07-27T19:00:58.511Z,97174.90
2023-07-27T19:03:25.771Z,97172.91
2023-07-27T19:05:52.399Z,97170.55
2023-07-27T19:08:21.795Z,97175.75
2023-07-27T19:11:00.904Z,97171.63
2023-07-27T19:13:27.721Z,97173.63
2023-07-27T19:15:54.412Z,97177.63
2023-07-27T19:18:21.048Z,97178.91
2023-07-27T19:20:48.473Z,97178.73
2023-07-27T19:23:15.018Z,97176.20
2023-07-27T19:25:43.431Z,97177.29
2023-07-27T19:28:11.778Z,97179.16
2023-07-27T19:30:39.582Z,97175.86
2023-07-27T19:33:10.581Z,97170.14
2023-07-27T19:35:38.587Z,97164.45
2023-07-27T19:38:06.454Z,97165.01
2023-07-27T19:40:33.329Z,97161.82
2023-07-27T19:43:00.277Z,97166.98
2023-07-27T19:45:27.121Z,97172.10
2023-07-27T19:47:53.955Z,97170.80
2023-07-27T19:50:21.206Z,97174.29
2023-07-27T19:52:47.862Z,97177.08
2023-07-27T19:55:14.298Z,97172.98
2023-07-27T19:57:41.196Z,97171.73
2023-07-27T20:00:10.609Z,97171.52
2023-07-27T20:02:37.348Z,97169.17
2023-07-27T20:05:06.907Z,97160.92
2023-07-27T20:07:33.260Z,97160.11
2023-07-27T20:10:00.878Z,97151.45
2023-07-27T20:12:29.516Z,97150.61
2023-07-27T20:14:56.179Z,97144.13
2023-07-27T20:17:23.352Z,97147.36
2023-07-27T20:19:50.505Z,97145.89
2023-07-27T20:22:19.853Z,97141.73
2023-07-27T20:24:50.504Z,97137.53
2023-07-27T20:27:17.324Z,97137.35
2023-07-27T20:29:43.831Z,97138.45
2023-07-27T20:32:10.452Z,97139.35
2023-07-27T20:34:37.287Z,97136.44
2023-07-27T20:37:04.074Z,97133.81
2023-07-27T20:39:30.899Z,97131.80
2023-07-27T20:42:00.188Z,97129.04
2023-07-27T20:44:27.088Z,97127.46
2023-07-27T20:46:53.803Z,97128.14
2023-07-27T20:49:20.403Z,97127.09
2023-07-27T20:51:48.062Z,97127.23
2023-07-27T20:54:14.852Z,97124.19
2023-07-27T20:56:43.990Z,97126.46
2023-07-27T20:59:11.175Z,97125.34
2023-07-27T21:01:38.151Z,97126.30
2023-07-27T21:04:07.014Z,97125.45
2023-07-27T21:06:35.957Z,97122.74
2023-07-27T21:09:03.125Z,97126.85
2023-07-27T21:11:30.458Z,97132.24
2023-07-27T21:13:57.218Z,97133.56
2023-07-27T21:16:24.251Z,97126.37
2023-07-27T21:18:54.209Z,97133.72
2023-07-27T21:21:21.233Z,97128.95
2023-07-27T21:23:50.776Z,97124.48
2023-07-27T21:26:18.192Z,97124.27
2023-07-27T21:28:45.582Z,97124.98
2023-07-27T21:31:13.038Z,97122.44
2023-07-27T21:33:40.255Z,97122.50
2023-07-27T21:36:07.555Z,97119.92
2023-07-27T21:38:34.740Z,97119.45
2023-07-27T21:41:02.446Z,97117.23
2023-07-27T21:43:29.595Z,97114.45
2023-07-27T21:45:57.201Z,97111.11
2023-07-27T21:48:24.646Z,97109.21
2023-07-27T21:50:52.716Z,97106.05
2023-07-27T21:53:19.702Z,97101.02
2023-07-27T21:55:47.758Z,97097.06
2023-07-27T21:58:17.274Z,97093.83
2023-07-27T22:00:43.667Z,97096.02
2023-07-27T22:03:12.456Z,97097.41
2023-07-27T22:05:39.248Z,97089.30
2023-07-27T22:08:05.844Z,97086.90
2023-07-27T22:10:33.611Z,97080.33
2023-07-27T22:13:00.107Z,97080.98
2023-07-27T22:15:26.444Z,97081.05
2023-07-27T22:17:54.246Z,97083.23
2023-07-27T22:20:20.961Z,97084.06
2023-07-27T22:22:47.537Z,97085.91
2023-07-27T22:25:15.015Z,97084.80
2023-07-27T22:27:41.978Z,97079.40
2023-07-27T22:30:08.888Z,97076.55
2023-07-27T22:32:36.276Z,97076.08
2023-07-27T22:35:03.556Z,97072.67
2023-07-27T22:37:30.106Z,97070.99
2023-07-27T22:39:57.331Z,97070.70
2023-07-27T22:42:26.782Z,97073.80
2023-07-27T22:44:53.234Z,97072.88
2023-07-27T22:47:23.132Z,97067.36
2023-07-27T22:49:50.403Z,97066.82
2023-07-27T22:52:16.947Z,97061.96
2023-07-27T22:54:44.348Z,97058.58
2023-07-27T22:57:11.316Z,97054.60
2023-07-27T22:59:37.796Z,97061.44
2023-07-27T23:02:04.710Z,97056.15
2023-07-27T23:04:31.482Z,97056.29
2023-07-27T23:06:58.074Z,97056.06
2023-07-27T23:09:25.424Z,97056.17
2023-07-27T23:11:51.785Z,97058.31
2023-07-27T23:14:18.249Z,97054.37
2023-07-27T23:16:44.900Z,97054.14
2023-07-27T23:19:11.429Z,97051.52
2023-07-27T23:21:37.849Z,97052.77
2023-07-27T23:24:05.047Z,97051.11
2023-07-27T23:26:31.416Z,97047.23
2023-07-27T23:28:58.948Z,97044.57
2023-07-27T23:31:26.144Z,97038.91
2023-07-27T23:33:52.723Z,97043.52
2023-07-27T23:36:20.105Z,97037.85
2023-07-27T23:38:47.630Z,97034.30
2023-07-27T23:41:17.293Z,97032.49
2023-07-27T23:43:43.954Z,97034.05
2023-07-27T23:46:11.046Z,97030.04
2023-07-27T23:48:37.541Z,97028.80
2023-07-27T23:51:04.212Z,97025.38
2023-07-27T23:53:31.399Z,97026.02
2023-07-27T23:56:00.056Z,97028.24
2023-07-27T23:58:26.421Z,97028.36
